Time;durP1;ratioP1;P1;durP2;ratioP2;P2;SDS_P1;SDS_P2;PMS_P1;PMS_P2;Temp;Humidity;BMP_temperature;BMP_pressure;BME280_temperature;BME280_humidity;BME280_pressure;Samples;Min_cycle;Max_cycle;Signal;HPM_P1;HPM_P2
2022/08/15 00:00:19;;;;;;;10.80;9.70;;;;;;;23.03;55.02;98115.31;5126695;28;20081;-72
2022/08/15 00:02:48;;;;;;;10.07;9.13;;;;;;;23.02;54.95;98110.94;5126968;28;20077;-71
2022/08/15 00:05:20;;;;;;;9.73;8.73;;;;;;;22.99;55.19;98110.50;5126930;28;20257;-72
2022/08/15 00:07:48;;;;;;;11.90;9.63;;;;;;;22.96;55.42;98116.28;5126788;28;20308;-72
2022/08/15 00:10:18;;;;;;;10.32;8.85;;;;;;;22.63;55.15;98067.34;5126792;28;20055;-73
2022/08/15 00:12:45;;;;;;;9.15;8.18;;;;;;;22.98;55.43;98119.63;5126811;28;20048;-73
2022/08/15 00:15:18;;;;;;;10.85;7.72;;;;;;;23.01;55.57;98120.09;5126692;28;20073;-73
2022/08/15 00:17:48;;;;;;;9.27;8.27;;;;;;;22.92;55.78;98115.84;5126393;28;20047;-73
2022/08/15 00:20:18;;;;;;;9.65;8.65;;;;;;;22.90;55.70;98111.66;5127033;28;20055;-73
2022/08/15 00:22:48;;;;;;;16.60;14.88;;;;;;;22.90;55.62;98115.19;5126314;28;20112;-72
2022/08/15 00:25:16;;;;;;;20.63;17.65;;;;;;;22.90;55.76;98117.06;5126475;28;20257;-73
2022/08/15 00:27:44;;;;;;;14.55;13.05;;;;;;;22.85;55.89;98116.81;5126533;27;20380;-73
2022/08/15 00:30:13;;;;;;;14.68;13.25;;;;;;;22.87;55.73;98112.88;5126187;28;20059;-73
2022/08/15 00:32:40;;;;;;;14.77;12.52;;;;;;;22.86;55.61;98119.31;5126708;28;20063;-73
2022/08/15 00:35:35;;;;;;;11.77;10.25;;;;;;;22.87;55.75;98109.34;5126104;28;20112;-72
2022/08/15 00:38:00;;;;;;;12.55;10.50;;;;;;;22.82;56.27;98109.91;5125970;28;20055;-72
2022/08/15 00:40:27;;;;;;;11.45;9.48;;;;;;;22.81;56.10;98110.94;5125816;28;20064;-73
2022/08/15 00:42:55;;;;;;;11.52;10.00;;;;;;;22.80;56.09;98111.13;5125754;28;20056;-72
2022/08/15 00:45:23;;;;;;;11.57;9.50;;;;;;;22.80;56.04;98117.38;5125949;28;20056;-72
2022/08/15 00:50:32;;;;;;;9.52;7.95;;;;;;;22.77;56.26;98111.53;5125474;28;20059;-72
2022/08/15 00:53:03;;;;;;;10.43;9.10;;;;;;;22.73;56.65;98109.22;5126210;28;20059;-72
2022/08/15 00:55:32;;;;;;;8.82;7.93;;;;;;;22.72;56.60;98109.41;5125625;28;20051;-72
2022/08/15 00:58:01;;;;;;;10.98;8.82;;;;;;;22.75;56.42;98106.31;5126094;28;20116;-72
2022/08/15 01:00:32;;;;;;;9.98;7.82;;;;;;;22.69;56.60;98113.31;5126071;28;20059;-71
2022/08/15 01:03:02;;;;;;;14.90;13.32;;;;;;;22.71;56.54;98111.25;5126085;28;20052;-72
2022/08/15 01:05:29;;;;;;;11.00;9.90;;;;;;;22.72;56.32;98114.81;5125971;28;20108;-72
2022/08/15 01:07:56;;;;;;;12.18;9.80;;;;;;;22.70;56.68;98119.56;5125674;28;20056;-72
2022/08/15 01:10:26;;;;;;;9.40;8.40;;;;;;;22.72;56.23;98114.81;5125723;28;20311;-71
2022/08/15 01:12:53;;;;;;;12.82;8.75;;;;;;;22.69;56.12;98116.03;5125776;28;20400;-72
2022/08/15 01:15:22;;;;;;;9.68;8.20;;;;;;;22.68;56.21;98114.34;5125688;28;20269;-72
2022/08/15 01:17:50;;;;;;;11.88;8.65;;;;;;;22.68;56.48;98105.41;5125623;28;20055;-72
2022/08/15 19:03:31;;;;;;;6.65;5.00;;;;;;;26.57;42.46;98072.41;5144869;27;20135;-74
2022/08/15 19:06:14;;;;;;;7.03;5.10;;;;;;;26.63;41.96;98068.84;5123652;28;20036;-72
2022/08/15 19:08:45;;;;;;;5.93;5.32;;;;;;;26.07;42.08;97991.59;5123467;28;20062;-73
2022/08/15 19:11:29;;;;;;;6.30;4.93;;;;;;;26.60;41.07;98069.25;5122812;28;20062;-73
2022/08/15 19:14:05;;;;;;;5.45;4.50;;;;;;;26.73;41.20;98082.78;5123251;28;20039;-72
2022/08/15 19:16:38;;;;;;;7.68;5.22;;;;;;;26.76;40.84;98088.63;5122741;28;20055;-73
2022/08/15 19:19:17;;;;;;;8.75;4.70;;;;;;;26.69;40.71;98067.97;5105159;28;20052;-73
2022/08/15 19:21:47;;;;;;;5.93;4.38;;;;;;;26.82;41.51;98086.91;5123171;28;20044;-73
2022/08/15 19:24:15;;;;;;;4.95;4.45;;;;;;;26.62;41.44;98056.31;5123441;28;20035;-73
2022/08/15 19:26:56;;;;;;;5.00;4.47;;;;;;;26.82;39.81;98097.78;5122998;28;20052;-74
2022/08/15 19:29:42;;;;;;;5.72;4.20;;;;;;;26.71;40.13;98083.00;5122554;28;20081;-72
2022/08/15 19:32:22;;;;;;;6.47;3.85;;;;;;;26.81;39.93;98099.66;5123032;28;20040;-73
2022/08/15 19:35:01;;;;;;;5.70;4.57;;;;;;;26.81;39.90;98088.78;5122777;28;20062;-73
2022/08/15 19:37:44;;;;;;;5.53;4.10;;;;;;;26.85;40.10;98102.78;5122589;28;20059;-74
2022/08/15 19:40:25;;;;;;;6.07;5.13;;;;;;;26.82;40.25;98108.66;5122750;28;20109;-73
2022/08/15 19:43:08;;;;;;;7.32;5.65;;;;;;;26.80;40.46;98162.41;5106135;28;20044;-72
2022/08/15 19:45:43;;;;;;;9.57;8.55;;;;;;;26.82;40.75;98128.50;5122299;28;20059;-73
2022/08/15 19:48:22;;;;;;;6.88;5.43;;;;;;;24.71;40.11;97768.41;5122536;28;20245;-74
2022/08/15 19:54:00;;;;;;;5.82;4.60;;;;;;;26.80;40.52;98124.34;5122753;28;20156;-72
2022/08/15 19:56:32;;;;;;;5.57;4.97;;;;;;;26.76;40.47;98117.69;5122954;28;20051;-73
2022/08/15 19:59:08;;;;;;;5.05;4.38;;;;;;;26.76;41.66;98126.66;5122748;28;20296;-73
2022/08/15 20:01:47;;;;;;;5.40;4.60;;;;;;;26.77;46.09;98128.34;5121879;28;20052;-75
2022/08/15 20:04:23;;;;;;;6.40;5.80;;;;;;;26.79;42.47;98122.69;5122379;28;20308;-74
2022/08/15 20:07:02;;;;;;;7.25;5.65;;;;;;;26.59;45.48;98108.34;5104224;28;20059;-74
2022/08/15 20:09:40;;;;;;;9.10;5.82;;;;;;;26.19;47.98;98046.88;5122147;28;20121;-74
2022/08/15 20:12:18;;;;;;;7.47;6.22;;;;;;;26.66;45.13;98126.31;5104441;28;20070;-74
2022/08/15 20:14:56;;;;;;;6.82;6.15;;;;;;;26.74;47.59;98147.78;5108507;28;20186;-75
2022/08/15 20:17:29;;;;;;;7.05;6.35;;;;;;;26.64;44.71;98149.31;5108502;28;20101;-74
2022/08/15 20:20:16;;;;;;;8.27;5.72;;;;;;;26.57;44.64;98152.03;5108237;28;20296;-74
2022/08/15 20:22:56;;;;;;;8.68;4.63;;;;;;;26.54;47.18;98157.88;5107873;28;20052;-74
2022/08/15 20:25:30;;;;;;;9.05;5.55;;;;;;;26.44;45.49;98147.47;5089206;28;20044;-73
2022/08/15 20:27:59;;;;;;;;;;;;;;;26.38;48.04;98174.66;5108743;28;20121;-74
2022/08/15 20:30:32;;;;;;;7.63;5.18;;;;;;;26.43;46.55;98177.56;5108243;28;19916;-73
2022/08/15 20:33:03;;;;;;;7.20;5.53;;;;;;;25.85;46.70;98090.63;5108028;28;20349;-74
2022/08/15 20:35:37;;;;;;;6.03;5.40;;;;;;;26.50;47.46;98181.94;5108307;28;20036;-73
2022/08/15 20:38:10;;;;;;;;;;;;;;;26.29;47.86;98193.09;5108353;28;20208;-74
2022/08/15 20:40:41;;;;;;;6.00;5.40;;;;;;;26.40;47.22;98183.44;5108119;28;20119;-73
2022/08/15 20:43:16;;;;;;;6.40;5.68;;;;;;;26.28;47.28;98158.00;5107692;28;20048;-73
2022/08/15 20:45:50;;;;;;;6.53;5.93;;;;;;;26.45;47.37;98189.91;5107636;28;20056;-73
2022/08/15 20:48:21;;;;;;;6.25;5.65;;;;;;;26.41;47.21;98188.66;5107700;28;20228;-73
2022/08/15 20:50:51;;;;;;;5.80;5.00;;;;;;;26.38;47.13;98190.97;5107409;28;20089;-73
2022/08/15 20:53:20;;;;;;;6.10;4.65;;;;;;;26.39;46.81;98195.34;5107215;28;20052;-73
2022/08/15 20:55:51;;;;;;;4.97;4.47;;;;;;;26.35;46.92;98181.34;5107469;28;20056;-76
2022/08/15 20:58:55;;;;;;;5.88;4.47;;;;;;;26.36;46.94;98201.22;5107534;28;20052;-73
2022/08/15 21:01:31;;;;;;;8.95;7.50;;;;;;;26.22;46.54;98203.13;5093752;28;20109;-73
2022/08/15 21:04:01;;;;;;;7.25;6.55;;;;;;;26.21;46.08;98204.16;5089836;28;20086;-74
2022/08/15 21:06:35;;;;;;;7.80;6.68;;;;;;;26.14;45.94;98215.03;5107474;28;20050;-73
2022/08/15 21:09:25;;;;;;;9.82;7.45;;;;;;;25.99;46.52;98208.19;5107396;28;20113;-73
2022/08/15 21:12:04;;;;;;;6.93;5.75;;;;;;;25.60;46.35;98128.44;5104695;28;20266;-73
2022/08/15 21:14:43;;;;;;;5.93;4.63;;;;;;;26.03;46.33;98215.69;5107639;28;20086;-73
2022/08/15 21:17:28;;;;;;;7.22;5.07;;;;;;;26.01;46.26;98222.38;5107069;28;20048;-73
2022/08/15 21:20:14;;;;;;;6.63;5.30;;;;;;;25.87;47.09;98205.22;5106974;28;20193;-73
2022/08/15 21:22:47;;;;;;;5.93;4.95;;;;;;;25.94;47.15;98224.22;5106974;28;20111;-72
2022/08/15 21:25:56;;;;;;;5.57;4.60;;;;;;;25.91;47.66;98229.03;5105794;28;20056;-72
2022/08/15 21:28:34;;;;;;;6.15;4.10;;;;;;;25.86;46.88;98230.69;5070929;28;20450;-73
2022/08/15 21:31:33;;;;;;;7.90;6.03;;;;;;;25.83;47.80;98237.38;5106776;28;20063;-73
2022/08/15 21:34:22;;;;;;;6.07;5.47;;;;;;;25.56;47.52;98220.25;5100467;28;20056;-73
2022/08/15 21:36:50;;;;;;;6.47;5.53;;;;;;;25.80;47.36;98245.94;5106997;28;20059;-73
2022/08/15 21:39:43;;;;;;;6.30;5.13;;;;;;;25.79;46.94;98246.16;5106432;28;20060;-73
2022/08/15 21:42:12;;;;;;;5.05;4.55;;;;;;;25.71;46.83;98247.19;5106679;28;20064;-73
2022/08/15 21:45:07;;;;;;;7.68;4.63;;;;;;;25.67;45.51;98254.06;5106882;28;20238;-72
2022/08/15 21:47:37;;;;;;;6.22;5.28;;;;;;;25.66;45.89;98254.28;5107111;28;20052;-72
2022/08/15 21:50:39;;;;;;;5.55;4.75;;;;;;;25.61;46.43;98249.47;5107381;28;20101;-72
2022/08/15 21:53:26;;;;;;;5.55;4.57;;;;;;;25.60;46.36;98247.81;5107497;28;20043;-72
2022/08/15 21:55:55;;;;;;;5.40;4.55;;;;;;;25.59;46.49;98246.97;5106985;28;20304;-73
2022/08/15 21:59:09;;;;;;;6.88;4.72;;;;;;;25.63;45.37;98252.00;5107087;28;20308;-74
2022/08/15 22:02:02;;;;;;;6.00;4.13;;;;;;;25.51;45.63;98244.47;5105939;28;20067;-73
2022/08/15 22:04:37;;;;;;;6.05;4.45;;;;;;;25.51;45.65;98246.34;5105847;28;20060;-72
2022/08/15 22:07:07;;;;;;;5.72;4.45;;;;;;;25.35;45.86;98225.03;5106148;28;20068;-72
2022/08/15 22:09:36;;;;;;;6.57;3.72;;;;;;;25.49;45.44;98249.25;5106280;28;20060;-72
2022/08/15 22:12:11;;;;;;;5.00;3.78;;;;;;;25.28;45.21;98214.13;5106185;28;20113;-73
2022/08/15 22:14:39;;;;;;;4.68;4.03;;;;;;;25.35;45.44;98225.88;5106421;28;20255;-72
2022/08/15 22:17:07;;;;;;;4.63;3.63;;;;;;;25.24;45.78;98216.44;5106210;28;20105;-72
2022/08/15 22:19:35;;;;;;;5.10;4.28;;;;;;;25.43;45.15;98246.53;5106128;28;20056;-71
2022/08/15 22:22:02;;;;;;;5.63;4.20;;;;;;;25.41;45.11;98252.16;5104448;28;20055;-72
2022/08/15 22:24:29;;;;;;;4.85;3.95;;;;;;;25.39;44.86;98231.72;5105502;28;20105;-72
2022/08/15 22:26:57;;;;;;;4.75;4.18;;;;;;;25.39;45.04;98245.28;5106192;28;20307;-72
2022/08/15 22:29:28;;;;;;;4.43;3.92;;;;;;;25.35;44.75;98242.13;5106005;28;20064;-72
2022/08/15 22:31:58;;;;;;;4.20;3.67;;;;;;;25.32;44.84;98242.56;5105629;28;20055;-72
2022/08/15 22:34:27;;;;;;;5.75;4.38;;;;;;;25.29;44.72;98245.63;5088246;28;20048;-73
2022/08/15 22:36:55;;;;;;;4.32;3.58;;;;;;;25.28;44.08;98244.81;5105540;28;20064;-72
2022/08/15 22:39:23;;;;;;;4.05;3.33;;;;;;;25.24;44.19;98242.72;5105788;28;20117;-71
2022/08/15 22:41:52;;;;;;;4.15;3.15;;;;;;;25.05;43.82;98228.06;5105807;28;20109;-72
2022/08/15 22:44:22;;;;;;;5.13;3.95;;;;;;;25.02;43.96;98217.63;5105752;28;20223;-72
2022/08/15 22:46:51;;;;;;;5.50;3.55;;;;;;;25.13;43.94;98244.13;5105694;28;20052;-71
2022/08/15 22:49:21;;;;;;;4.78;3.30;;;;;;;25.07;43.19;98244.97;5105219;28;20201;-72
2022/08/15 22:51:53;;;;;;;5.05;3.17;;;;;;;25.08;43.33;98249.34;5105570;28;20101;-72
2022/08/15 22:54:24;;;;;;;4.85;3.35;;;;;;;25.04;43.33;98241.81;5105657;28;20169;-72
2022/08/15 22:56:56;;;;;;;4.65;2.70;;;;;;;25.05;43.10;98243.50;5105649;28;20117;-72
2022/08/15 22:59:32;;;;;;;4.53;3.35;;;;;;;25.01;43.79;98243.06;5105781;28;20246;-72
2022/08/15 23:02:04;;;;;;;5.97;2.67;;;;;;;24.82;43.42;98224.81;5105400;28;20048;-72
2022/08/15 23:04:37;;;;;;;3.75;3.00;;;;;;;24.92;43.51;98249.66;5105360;28;20358;-72
2022/08/15 23:07:10;;;;;;;4.35;3.53;;;;;;;24.89;43.39;98250.06;5105239;28;20063;-73
2022/08/15 23:09:38;;;;;;;3.95;3.55;;;;;;;24.86;43.92;98253.19;5105450;28;20063;-72
2022/08/15 23:12:12;;;;;;;4.70;3.67;;;;;;;24.61;44.16;98210.31;5104955;28;20060;-73
2022/08/15 23:14:46;;;;;;;5.40;4.07;;;;;;;24.87;43.90;98255.69;5105652;28;20043;-72
2022/08/15 23:17:16;;;;;;;3.97;3.58;;;;;;;24.74;43.96;98241.25;5105045;28;20253;-73
2022/08/15 23:19:47;;;;;;;4.25;3.35;;;;;;;24.77;43.90;98236.28;5105452;28;20062;-72
2022/08/15 23:22:17;;;;;;;7.75;4.47;;;;;;;24.76;43.98;98255.44;5105463;28;20250;-73
2022/08/15 23:24:45;;;;;;;4.50;3.50;;;;;;;24.80;44.21;98256.72;5105016;28;20165;-72
2022/08/15 23:27:15;;;;;;;3.90;3.50;;;;;;;24.64;43.92;98231.59;5105521;28;20298;-72
2022/08/15 23:29:45;;;;;;;6.35;3.90;;;;;;;24.78;44.39;98256.06;5105227;28;20109;-73
2022/08/15 23:32:16;;;;;;;4.38;3.47;;;;;;;24.71;44.34;98238.94;5105450;28;20073;-72
2022/08/15 23:34:46;;;;;;;4.57;4.18;;;;;;;24.70;45.08;98250.81;5103800;28;20052;-73
2022/08/15 23:37:21;;;;;;;4.32;3.30;;;;;;;24.72;44.22;98255.00;5104713;28;20258;-72
2022/08/15 23:39:54;;;;;;;4.20;3.25;;;;;;;24.30;44.17;98185.59;5105195;28;20055;-73
2022/08/15 23:42:31;;;;;;;4.90;3.17;;;;;;;24.74;44.03;98249.38;5105281;28;20059;-73
2022/08/15 23:44:59;;;;;;;7.00;3.00;;;;;;;24.69;44.29;98254.56;5105259;28;20319;-73
2022/08/15 23:47:26;;;;;;;4.05;3.20;;;;;;;24.32;44.24;98189.78;5104849;28;20052;-72
2022/08/15 23:49:54;;;;;;;4.03;3.20;;;;;;;24.69;44.08;98260.00;5108248;28;20102;-73
2022/08/15 23:52:22;;;;;;;4.22;3.42;;;;;;;23.91;43.83;98126.63;5108978;28;20113;-73
2022/08/15 23:54:49;;;;;;;6.47;4.53;;;;;;;24.66;43.60;98263.94;5108896;28;20098;-72
2022/08/15 23:57:17;;;;;;;5.00;4.30;;;;;;;24.67;43.79;98256.66;5108756;28;20055;-72
2022/08/15 23:59:44;;;;;;;4.85;3.72;;;;;;;24.69;43.91;98268.13;5108503;28;20105;-73
